createdAt,value
2022-10-27T00:00:56.137Z,10.90
2022-10-27T00:03:23.746Z,11.50
2022-10-27T00:05:51.232Z,12.68
2022-10-27T00:08:21.973Z,12.57
2022-10-27T00:11:00.978Z,9.30
2022-10-27T00:13:29.536Z,7.85
2022-10-27T00:16:02.283Z,9.43
2022-10-27T00:18:29.870Z,9.77
2022-10-27T00:21:09.313Z,10.90
2022-10-27T00:23:38.356Z,9.83
2022-10-27T00:26:08.815Z,13.73
2022-10-27T00:28:36.522Z,11.88
2022-10-27T00:31:07.308Z,9.82
2022-10-27T00:33:35.155Z,8.60
2022-10-27T00:36:12.244Z,15.03
2022-10-27T00:38:40.192Z,11.25
2022-10-27T00:41:22.198Z,7.32
2022-10-27T00:43:49.683Z,15.85
2022-10-27T00:46:26.263Z,11.52
2022-10-27T00:48:59.243Z,16.63
2022-10-27T00:51:27.183Z,15.98
2022-10-27T00:53:55.906Z,18.25
2022-10-27T00:56:24.652Z,20.60
2022-10-27T00:58:52.200Z,15.00
2022-10-27T01:01:19.821Z,15.33
2022-10-27T01:03:47.918Z,15.77
2022-10-27T01:06:16.199Z,14.63
2022-10-27T01:08:44.472Z,16.02
2022-10-27T01:11:12.050Z,12.63
2022-10-27T01:13:39.712Z,17.20
2022-10-27T01:16:34.822Z,19.35
2022-10-27T01:19:05.070Z,8.80
2022-10-27T01:21:32.531Z,16.83
2022-10-27T01:24:36.862Z,16.85
2022-10-27T01:27:38.464Z,16.87
2022-10-27T01:30:20.976Z,14.20
2022-10-27T01:33:21.292Z,17.52
2022-10-27T01:35:54.256Z,15.07
2022-10-27T01:38:30.121Z,12.55
2022-10-27T01:41:06.793Z,17.67
2022-10-27T01:43:36.129Z,14.60
2022-10-27T01:46:06.931Z,25.05
2022-10-27T01:48:36.686Z,18.45
2022-10-27T01:51:04.781Z,17.75
2022-10-27T01:53:36.690Z,26.43
2022-10-27T01:56:04.129Z,16.10
2022-10-27T01:58:40.908Z,12.20
2022-10-27T02:01:26.702Z,18.63
2022-10-27T02:04:02.017Z,14.65
2022-10-27T02:06:58.563Z,17.47
2022-10-27T02:09:41.606Z,15.82
2022-10-27T02:12:21.397Z,14.80
2022-10-27T02:14:53.677Z,14.15
2022-10-27T02:17:23.379Z,17.48
2022-10-27T02:19:55.053Z,15.00
2022-10-27T02:22:27.110Z,17.05
2022-10-27T02:24:55.008Z,18.08
2022-10-27T02:27:35.642Z,16.58
2022-10-27T02:30:05.110Z,17.33
2022-10-27T02:32:34.166Z,18.20
2022-10-27T02:35:02.812Z,18.13
2022-10-27T02:37:37.633Z,15.80
2022-10-27T02:40:05.863Z,18.15
2022-10-27T02:42:33.382Z,13.50
2022-10-27T02:45:00.919Z,23.00
2022-10-27T02:47:28.392Z,18.02
2022-10-27T02:49:55.861Z,15.88
2022-10-27T02:52:23.342Z,21.77
2022-10-27T02:54:50.849Z,18.67
2022-10-27T02:57:19.122Z,15.03
2022-10-27T02:59:49.628Z,16.65
2022-10-27T03:02:20.479Z,11.18
2022-10-27T03:04:47.975Z,15.73
2022-10-27T03:07:15.683Z,16.02
2022-10-27T03:09:43.130Z,19.33
2022-10-27T03:12:10.758Z,19.77
2022-10-27T03:14:38.229Z,17.85
2022-10-27T03:17:05.844Z,18.52
2022-10-27T03:19:33.575Z,15.48
2022-10-27T03:22:01.132Z,18.03
2022-10-27T03:24:28.641Z,13.35
2022-10-27T03:26:56.175Z,18.90
2022-10-27T03:29:23.705Z,18.13
2022-10-27T03:31:51.300Z,16.75
2022-10-27T03:34:20.914Z,22.93
2022-10-27T03:36:48.783Z,12.27
2022-10-27T03:39:16.292Z,16.05
2022-10-27T03:41:43.853Z,18.13
2022-10-27T03:44:11.271Z,16.33
2022-10-27T03:46:38.818Z,19.97
2022-10-27T03:49:06.390Z,14.35
2022-10-27T03:51:33.894Z,17.73
2022-10-27T03:54:01.356Z,19.48
2022-10-27T03:56:28.895Z,21.55
2022-10-27T03:58:56.386Z,16.10
2022-10-27T04:01:24.271Z,20.70
2022-10-27T04:03:51.817Z,18.77
2022-10-27T04:06:19.809Z,18.33
2022-10-27T04:08:47.395Z,21.00
2022-10-27T04:11:14.937Z,16.00
2022-10-27T04:13:42.563Z,20.27
2022-10-27T04:16:10.178Z,19.27
2022-10-27T04:18:37.668Z,15.93
2022-10-27T04:21:06.587Z,18.13
2022-10-27T04:23:34.161Z,21.30
2022-10-27T04:26:02.082Z,21.05
2022-10-27T04:28:29.582Z,20.55
2022-10-27T04:30:57.332Z,16.10
2022-10-27T04:33:28.137Z,23.40
2022-10-27T04:35:58.200Z,16.83
2022-10-27T04:38:25.697Z,16.15
2022-10-27T04:40:53.235Z,18.20
2022-10-27T04:43:20.777Z,17.10
2022-10-27T04:45:48.409Z,18.10
2022-10-27T04:48:15.904Z,22.50
2022-10-27T04:50:43.404Z,17.75
2022-10-27T04:53:10.959Z,18.75
2022-10-27T04:55:38.812Z,18.13
2022-10-27T04:58:09.288Z,23.05
2022-10-27T05:00:37.349Z,20.30
2022-10-27T05:03:04.993Z,16.23
2022-10-27T05:05:32.717Z,15.52
2022-10-27T05:08:02.352Z,18.77
2022-10-27T05:10:31.998Z,19.50
2022-10-27T05:12:59.708Z,16.70
2022-10-27T05:15:27.694Z,20.85
2022-10-27T05:17:55.364Z,16.83
2022-10-27T05:20:23.719Z,19.67
2022-10-27T05:22:51.310Z,16.17
2022-10-27T05:25:18.822Z,17.03
2022-10-27T05:27:46.345Z,20.55
2022-10-27T05:30:15.310Z,14.85
2022-10-27T05:32:44.789Z,20.70
2022-10-27T05:35:14.989Z,13.10
2022-10-27T05:37:46.717Z,19.97
2022-10-27T05:40:15.165Z,22.27
2022-10-27T05:42:56.794Z,25.35
2022-10-27T05:45:24.851Z,18.88
2022-10-27T05:48:04.108Z,22.50
2022-10-27T05:50:33.360Z,15.23
2022-10-27T05:53:01.350Z,16.40
2022-10-27T05:55:29.171Z,20.98
2022-10-27T05:57:59.078Z,18.73
2022-10-27T06:00:32.239Z,24.30
2022-10-27T06:03:01.452Z,24.60
2022-10-27T06:05:30.745Z,22.05
2022-10-27T06:07:59.073Z,23.70
2022-10-27T06:10:29.324Z,21.23
2022-10-27T06:13:05.378Z,20.60
2022-10-27T06:15:34.954Z,22.87
2022-10-27T06:18:02.913Z,18.42
2022-10-27T06:20:30.807Z,21.70
2022-10-27T06:22:58.715Z,19.48
2022-10-27T06:25:26.241Z,20.55
2022-10-27T06:27:54.044Z,15.40
2022-10-27T06:30:22.657Z,16.55
2022-10-27T06:32:50.407Z,17.52
2022-10-27T06:35:18.837Z,19.15
2022-10-27T06:37:47.104Z,13.32
2022-10-27T06:40:17.009Z,16.10
2022-10-27T06:43:05.551Z,15.48
2022-10-27T06:45:34.535Z,26.60
2022-10-27T06:48:02.305Z,15.25
2022-10-27T06:50:30.246Z,16.40
2022-10-27T06:52:59.000Z,15.53
2022-10-27T06:55:26.623Z,19.30
2022-10-27T06:57:54.445Z,19.23
2022-10-27T07:00:22.547Z,16.95
2022-10-27T07:02:50.511Z,14.35
2022-10-27T07:05:18.491Z,18.03
2022-10-27T07:07:55.893Z,21.77
2022-10-27T07:10:23.719Z,14.52
2022-10-27T07:13:09.621Z,14.15
2022-10-27T07:15:39.311Z,14.48
2022-10-27T07:18:08.932Z,17.67
2022-10-27T07:20:39.284Z,14.85
2022-10-27T07:23:09.922Z,14.98
2022-10-27T07:25:38.274Z,12.93
2022-10-27T07:28:06.680Z,17.45
2022-10-27T07:30:38.323Z,20.50
2022-10-27T07:33:06.283Z,121.82
2022-10-27T07:35:33.977Z,136.85
2022-10-27T07:38:01.926Z,78.50
2022-10-27T07:40:32.682Z,29.38
2022-10-27T07:43:05.221Z,67.30
2022-10-27T07:45:41.320Z,35.25
2022-10-27T07:48:14.924Z,33.25
2022-10-27T07:50:44.583Z,17.30
2022-10-27T07:53:15.499Z,22.65
2022-10-27T07:55:43.019Z,18.90
2022-10-27T07:58:15.696Z,19.85
2022-10-27T08:00:48.223Z,18.48
2022-10-27T08:03:18.885Z,17.80
2022-10-27T08:05:46.798Z,17.98
2022-10-27T08:08:15.614Z,16.20
2022-10-27T08:10:44.563Z,19.80
2022-10-27T08:13:12.993Z,16.55
2022-10-27T08:15:41.587Z,18.30
2022-10-27T08:18:10.912Z,19.08
2022-10-27T08:20:41.424Z,17.43
2022-10-27T08:23:15.699Z,15.15
2022-10-27T08:25:43.715Z,16.42
2022-10-27T08:28:12.809Z,21.52
2022-10-27T08:30:49.766Z,15.80
2022-10-27T08:33:21.204Z,11.67
2022-10-27T08:35:50.516Z,15.20
2022-10-27T08:38:18.871Z,15.18
2022-10-27T08:41:08.208Z,18.02
2022-10-27T08:43:55.837Z,18.60
2022-10-27T08:46:46.723Z,14.50
2022-10-27T08:49:34.729Z,17.25
2022-10-27T08:52:23.996Z,15.25
2022-10-27T08:55:01.086Z,12.98
2022-10-27T09:00:06.456Z,17.60
2022-10-27T09:03:20.447Z,14.90
2022-10-27T09:06:15.259Z,15.50
2022-10-27T09:09:06.892Z,16.17
2022-10-27T09:11:55.705Z,15.93
2022-10-27T09:14:27.808Z,14.93
2022-10-27T09:17:00.100Z,19.42
2022-10-27T09:19:39.640Z,20.20
2022-10-27T09:22:17.056Z,15.15
2022-10-27T09:25:12.937Z,10.82
2022-10-27T09:27:44.148Z,16.40
2022-10-27T09:30:14.020Z,11.80
2022-10-27T09:32:48.193Z,9.20
2022-10-27T09:35:26.148Z,11.93
2022-10-27T09:37:54.071Z,12.30
2022-10-27T09:40:23.280Z,9.13
2022-10-27T09:42:55.408Z,10.15
2022-10-27T09:45:26.030Z,9.57
2022-10-27T09:48:03.867Z,12.65
2022-10-27T09:50:41.030Z,8.07
2022-10-27T09:53:48.212Z,13.10
2022-10-27T09:56:24.785Z,12.90
2022-10-27T09:59:02.641Z,13.27
2022-10-27T10:01:57.535Z,9.10
2022-10-27T10:04:46.854Z,10.32
2022-10-27T10:07:37.351Z,9.00
2022-10-27T10:10:21.892Z,9.45
2022-10-27T10:13:04.398Z,8.95
2022-10-27T10:15:37.749Z,8.50
2022-10-27T10:18:21.244Z,6.78
2022-10-27T10:21:00.646Z,10.17
2022-10-27T10:23:35.223Z,8.88
2022-10-27T10:26:15.050Z,7.60
2022-10-27T10:28:44.537Z,8.27
2022-10-27T10:31:23.508Z,7.40
2022-10-27T10:33:51.500Z,6.07
2022-10-27T10:36:24.992Z,6.13
2022-10-27T10:38:56.570Z,5.72
2022-10-27T10:41:25.880Z,2.92
2022-10-27T10:44:08.405Z,4.75
2022-10-27T10:46:38.923Z,3.63
2022-10-27T10:49:18.432Z,4.43
2022-10-27T10:51:51.203Z,4.03
2022-10-27T10:54:26.770Z,4.97
2022-10-27T10:56:55.811Z,3.38
2022-10-27T10:59:28.715Z,9.80
2022-10-27T11:02:06.218Z,4.25
2022-10-27T11:04:42.843Z,5.10
2022-10-27T11:07:25.377Z,4.57
2022-10-27T11:10:10.252Z,6.55
2022-10-27T11:12:39.736Z,4.60
2022-10-27T11:15:46.080Z,4.30
2022-10-27T11:18:22.980Z,4.68
2022-10-27T11:20:57.239Z,4.85
2022-10-27T11:23:34.178Z,1.95
2022-10-27T11:26:03.114Z,1.67
2022-10-27T11:28:53.893Z,2.08
2022-10-27T11:31:53.981Z,4.18
2022-10-27T11:34:56.427Z,3.67
2022-10-27T11:37:35.841Z,2.33
2022-10-27T11:40:57.554Z,2.03
2022-10-27T11:44:02.147Z,4.82
2022-10-27T11:46:43.467Z,2.78
2022-10-27T11:49:21.045Z,1.63
2022-10-27T11:52:30.817Z,3.30
2022-10-27T11:55:01.037Z,1.63
2022-10-27T11:57:49.765Z,1.60
2022-10-27T12:00:29.383Z,2.15
2022-10-27T12:03:00.142Z,4.00
2022-10-27T12:05:27.810Z,1.90
2022-10-27T12:07:58.392Z,1.50
2022-10-27T12:11:06.238Z,1.92
2022-10-27T12:13:55.792Z,2.70
2022-10-27T12:17:06.558Z,2.58
2022-10-27T12:19:42.015Z,1.60
2022-10-27T12:22:18.488Z,1.13
2022-10-27T12:24:56.646Z,3.10
2022-10-27T12:27:29.361Z,2.13
2022-10-27T12:30:03.559Z,3.95
2022-10-27T12:32:43.353Z,2.63
2022-10-27T12:35:16.629Z,2.67
2022-10-27T12:38:08.205Z,1.83
2022-10-27T12:41:09.663Z,0.45
2022-10-27T12:43:42.483Z,2.47
2022-10-27T12:46:21.993Z,0.70
2022-10-27T12:48:55.179Z,1.43
2022-10-27T12:51:37.567Z,2.97
2022-10-27T12:54:34.463Z,1.80
2022-10-27T12:57:01.950Z,2.47
2022-10-27T13:00:06.843Z,1.70
2022-10-27T13:02:44.024Z,2.23
2022-10-27T13:05:30.528Z,1.20
2022-10-27T13:08:16.162Z,1.60
2022-10-27T13:11:30.300Z,1.25
2022-10-27T13:14:25.907Z,1.38
2022-10-27T13:17:01.425Z,1.77
2022-10-27T13:22:32.310Z,1.27
2022-10-27T13:25:12.485Z,1.27
2022-10-27T13:27:48.460Z,5.13
2022-10-27T13:30:21.935Z,2.17
2022-10-27T13:32:49.463Z,1.95
2022-10-27T13:35:20.796Z,1.92
2022-10-27T13:38:07.845Z,2.78
2022-10-27T13:40:39.812Z,1.98
2022-10-27T13:43:22.572Z,3.67
2022-10-27T13:45:54.880Z,2.22
2022-10-27T13:48:22.933Z,2.35
2022-10-27T13:50:52.333Z,1.58
2022-10-27T13:53:19.808Z,4.25
2022-10-27T13:55:52.607Z,1.60
2022-10-27T13:58:20.175Z,9.30
2022-10-27T14:01:14.827Z,1.65
2022-10-27T14:04:22.937Z,2.33
2022-10-27T14:07:22.834Z,2.35
2022-10-27T14:09:51.558Z,2.10
2022-10-27T14:12:37.760Z,1.95
2022-10-27T14:15:11.160Z,2.47
2022-10-27T14:17:43.089Z,2.88
2022-10-27T14:20:20.661Z,4.28
2022-10-27T14:22:52.049Z,5.20
2022-10-27T14:25:26.141Z,2.97
2022-10-27T14:28:08.980Z,6.65
2022-10-27T14:30:36.561Z,5.85
2022-10-27T14:33:24.651Z,5.25
2022-10-27T14:38:51.273Z,3.42
2022-10-27T14:41:20.998Z,2.95
2022-10-27T14:43:53.080Z,4.28
2022-10-27T14:46:24.087Z,5.32
2022-10-27T14:49:32.199Z,4.03
2022-10-27T14:52:06.564Z,6.20
2022-10-27T14:54:34.599Z,4.22
2022-10-27T14:57:37.176Z,4.05
2022-10-27T15:00:38.879Z,3.65
2022-10-27T15:03:17.936Z,7.00
2022-10-27T15:05:48.392Z,5.32
2022-10-27T15:08:20.933Z,4.53
2022-10-27T15:10:52.095Z,3.60
2022-10-27T15:13:22.286Z,6.03
2022-10-27T15:15:51.011Z,6.90
2022-10-27T15:18:27.224Z,2.97
2022-10-27T15:20:56.076Z,4.30
2022-10-27T15:23:24.039Z,5.13
2022-10-27T15:25:56.960Z,4.57
2022-10-27T15:28:32.696Z,4.23
2022-10-27T15:31:01.316Z,4.80
2022-10-27T15:33:28.721Z,4.80
2022-10-27T15:36:09.017Z,3.70
2022-10-27T15:38:36.622Z,3.90
2022-10-27T15:41:11.029Z,4.87
2022-10-27T15:43:39.758Z,3.40
2022-10-27T15:46:18.493Z,4.47
2022-10-27T15:48:53.623Z,3.78
2022-10-27T15:51:21.732Z,5.07
2022-10-27T15:53:55.221Z,8.53
2022-10-27T15:56:23.144Z,4.38
2022-10-27T15:59:13.386Z,3.00
2022-10-27T16:01:43.095Z,3.40
2022-10-27T16:04:21.206Z,4.22
2022-10-27T16:06:49.255Z,5.67
2022-10-27T16:09:36.136Z,4.75
2022-10-27T16:12:04.357Z,3.83
2022-10-27T16:14:31.906Z,5.40
2022-10-27T16:17:00.242Z,3.58
2022-10-27T16:19:27.960Z,3.07
2022-10-27T16:21:55.536Z,5.40
2022-10-27T16:24:24.540Z,6.45
2022-10-27T16:26:53.166Z,3.95
2022-10-27T16:29:23.909Z,3.88
2022-10-27T16:31:51.441Z,3.83
2022-10-27T16:34:23.818Z,3.75
2022-10-27T16:36:53.317Z,5.10
2022-10-27T16:39:20.833Z,4.20
2022-10-27T16:41:48.383Z,4.18
2022-10-27T16:44:16.278Z,3.57
2022-10-27T16:46:44.259Z,4.18
2022-10-27T16:49:11.796Z,3.50
2022-10-27T16:51:40.540Z,3.72
2022-10-27T16:54:08.061Z,3.45
2022-10-27T16:56:46.505Z,3.03
2022-10-27T16:59:14.085Z,4.70
2022-10-27T17:01:41.704Z,4.53
2022-10-27T17:04:09.682Z,5.78
2022-10-27T17:06:37.164Z,5.20
2022-10-27T17:09:04.677Z,5.20
2022-10-27T17:11:32.191Z,5.03
2022-10-27T17:13:59.790Z,4.88
2022-10-27T17:16:27.303Z,3.70
2022-10-27T17:18:54.855Z,6.05
2022-10-27T17:21:22.596Z,3.40
2022-10-27T17:23:51.693Z,4.13
2022-10-27T17:26:20.163Z,4.72
2022-10-27T17:28:48.999Z,3.05
2022-10-27T17:31:20.908Z,3.10
2022-10-27T17:33:50.800Z,3.03
2022-10-27T17:36:18.260Z,3.42
2022-10-27T17:38:45.761Z,3.63
2022-10-27T17:41:13.843Z,3.40
2022-10-27T17:43:41.549Z,3.70
2022-10-27T17:46:13.908Z,3.07
2022-10-27T17:48:49.699Z,4.00
2022-10-27T17:51:22.619Z,3.63
2022-10-27T17:53:51.979Z,4.05
2022-10-27T17:56:25.857Z,3.75
2022-10-27T17:58:53.577Z,5.00
2022-10-27T18:01:39.754Z,3.97
2022-10-27T18:04:09.889Z,3.47
2022-10-27T18:06:38.783Z,4.20
2022-10-27T18:09:06.711Z,5.45
2022-10-27T18:11:37.063Z,3.20
2022-10-27T18:14:08.383Z,5.80
2022-10-27T18:16:36.900Z,4.28
2022-10-27T18:19:10.557Z,4.28
2022-10-27T18:21:41.268Z,3.50
2022-10-27T18:24:10.718Z,3.83
2022-10-27T18:26:40.282Z,4.20
2022-10-27T18:29:09.793Z,3.45
2022-10-27T18:31:38.990Z,5.72
2022-10-27T18:34:12.162Z,7.28
2022-10-27T18:36:41.595Z,5.30
2022-10-27T18:39:15.695Z,5.30
2022-10-27T18:41:43.880Z,4.50
2022-10-27T18:44:11.838Z,3.80
2022-10-27T18:46:39.686Z,4.05
2022-10-27T18:49:12.146Z,5.53
2022-10-27T18:51:48.189Z,4.20
2022-10-27T18:54:15.767Z,6.57
2022-10-27T18:56:43.398Z,5.63
2022-10-27T18:59:13.510Z,5.47
2022-10-27T19:01:43.417Z,5.97
2022-10-27T19:04:11.133Z,8.85
2022-10-27T19:06:38.905Z,6.40
2022-10-27T19:09:06.675Z,4.20
2022-10-27T19:11:35.766Z,7.35
2022-10-27T19:14:04.396Z,5.70
2022-10-27T19:16:32.285Z,5.35
2022-10-27T19:19:00.528Z,5.75
2022-10-27T19:21:28.987Z,5.65
2022-10-27T19:23:59.062Z,6.53
2022-10-27T19:26:29.078Z,4.67
2022-10-27T19:28:57.897Z,5.30
2022-10-27T19:31:36.313Z,4.25
2022-10-27T19:34:05.303Z,4.22
2022-10-27T19:36:34.532Z,3.92
2022-10-27T19:39:06.343Z,4.00
2022-10-27T19:41:37.942Z,3.88
2022-10-27T19:44:06.300Z,3.65
2022-10-27T19:46:34.554Z,5.00
2022-10-27T19:49:07.470Z,7.25
2022-10-27T19:51:39.011Z,5.30
2022-10-27T19:54:11.045Z,5.40
2022-10-27T19:56:47.353Z,5.30
2022-10-27T19:59:17.871Z,5.55
2022-10-27T20:01:50.400Z,3.53
2022-10-27T20:04:21.487Z,5.70
2022-10-27T20:06:49.201Z,5.22
2022-10-27T20:09:18.702Z,5.03
2022-10-27T20:11:46.983Z,7.95
2022-10-27T20:14:14.818Z,7.70
2022-10-27T20:16:44.639Z,6.90
2022-10-27T20:19:17.709Z,4.40
2022-10-27T20:21:45.644Z,4.95
2022-10-27T20:24:13.838Z,5.47
2022-10-27T20:26:46.652Z,4.75
2022-10-27T20:29:15.241Z,4.63
2022-10-27T20:31:45.086Z,6.18
2022-10-27T20:34:13.503Z,5.93
2022-10-27T20:36:42.332Z,6.88
2022-10-27T20:39:11.284Z,6.05
2022-10-27T20:41:38.877Z,6.57
2022-10-27T20:44:06.780Z,5.18
2022-10-27T20:46:34.963Z,7.10
2022-10-27T20:49:02.559Z,3.92
2022-10-27T20:51:31.789Z,4.53
2022-10-27T20:54:00.234Z,5.97
2022-10-27T20:56:30.160Z,6.43
2022-10-27T20:58:57.667Z,5.20
2022-10-27T21:01:32.696Z,4.50
2022-10-27T21:04:11.892Z,4.22
2022-10-27T21:06:42.077Z,5.77
2022-10-27T21:09:12.605Z,4.97
2022-10-27T21:11:41.050Z,4.85
2022-10-27T21:14:09.476Z,5.75
2022-10-27T21:16:37.665Z,6.53
2022-10-27T21:19:07.441Z,5.97
2022-10-27T21:21:35.630Z,5.25
2022-10-27T21:24:04.353Z,8.60
2022-10-27T21:26:32.298Z,8.50
2022-10-27T21:29:00.742Z,8.38
2022-10-27T21:31:30.655Z,12.60
2022-10-27T21:34:02.811Z,16.90
2022-10-27T21:36:30.798Z,8.27
2022-10-27T21:38:58.503Z,9.38
2022-10-27T21:41:26.621Z,13.07
2022-10-27T21:43:55.824Z,28.90
2022-10-27T21:46:25.976Z,14.57
2022-10-27T21:49:00.557Z,7.13
2022-10-27T21:51:29.655Z,7.22
2022-10-27T21:54:01.885Z,5.82
2022-10-27T21:56:31.329Z,6.03
2022-10-27T21:58:59.564Z,5.72
2022-10-27T22:01:28.435Z,5.75
2022-10-27T22:03:57.355Z,4.50
2022-10-27T22:06:29.218Z,4.35
2022-10-27T22:08:57.985Z,4.90
2022-10-27T22:11:28.285Z,3.63
2022-10-27T22:13:55.914Z,4.97
2022-10-27T22:16:25.473Z,5.00
2022-10-27T22:18:57.976Z,4.13
2022-10-27T22:21:27.217Z,5.47
2022-10-27T22:23:55.056Z,4.63
2022-10-27T22:26:23.483Z,5.88
2022-10-27T22:28:51.971Z,3.95
2022-10-27T22:31:22.079Z,3.50
2022-10-27T22:33:50.803Z,4.03
2022-10-27T22:36:20.559Z,6.65
2022-10-27T22:38:55.483Z,3.22
2022-10-27T22:41:23.721Z,4.32
2022-10-27T22:43:51.814Z,6.07
2022-10-27T22:46:22.332Z,6.37
2022-10-27T22:48:50.825Z,3.78
2022-10-27T22:51:20.408Z,5.53
2022-10-27T22:53:48.820Z,5.93
2022-10-27T22:56:19.060Z,4.28
2022-10-27T22:58:48.684Z,6.50
2022-10-27T23:01:19.323Z,4.38
2022-10-27T23:03:51.367Z,4.47
2022-10-27T23:06:20.124Z,8.60
2022-10-27T23:08:51.680Z,4.80
2022-10-27T23:11:19.366Z,6.53
2022-10-27T23:13:47.163Z,7.07
2022-10-27T23:16:14.883Z,6.20
2022-10-27T23:18:42.749Z,10.18
2022-10-27T23:21:15.308Z,6.72
2022-10-27T23:23:43.604Z,5.77
2022-10-27T23:26:26.407Z,8.93
2022-10-27T23:28:56.340Z,6.38
2022-10-27T23:31:25.402Z,4.65
2022-10-27T23:33:54.764Z,6.40
2022-10-27T23:36:23.198Z,5.97
2022-10-27T23:38:51.519Z,5.03
2022-10-27T23:41:19.560Z,7.25
2022-10-27T23:43:57.831Z,5.03
2022-10-27T23:46:26.685Z,9.15
2022-10-27T23:48:54.214Z,7.13
2022-10-27T23:51:22.599Z,5.20
2022-10-27T23:53:51.399Z,10.75
2022-10-27T23:56:19.397Z,8.02
2022-10-27T23:58:47.008Z,10.63
